SM7GXQ Weather Reports


time (UTC)temp
F
wind
direction
speed
knots
gust
knots
rain 1hr
in
rain 24hr
in
rain mn
in
humidity
%
barometer
mb
20220124110004 40 270 6.1 12.2 0.00 0.00 0.00 87 1024.8
20220124101503 40 260 8.7 14.8 0.00 0.00 0.00 89 1025.1
20220124100004 39 272 6.1 11.3 0.00 0.00 0.00 90 1025.1
20220124094503 39 260 6.1 11.3 0.00 0.00 0.00 90 1025.1
20220124093004 39 259 6.1 10.4 0.00 0.00 0.00 88 1025.2
20220124091503 39 277 6.1 13.0 0.00 0.00 0.00 89 1025.5
20220124090004 40 258 7.0 12.2 0.00 0.00 0.00 89 1025.5
20220124084503 40 271 6.1 12.2 0.00 0.00 0.00 90 1025.5
20220124083003 40 256 5.2 11.3 0.00 0.00 0.00 90 1025.9
20220124080004 40 253 6.1 10.4 0.00 0.00 0.00 91 1025.9
20220124073005 39 255 5.2 10.4 0.00 0.00 0.00 91 1026.0
20220124070004 39 258 5.2 7.8 0.00 0.00 0.00 92 1025.9
20220124064503 39 258 5.2 8.7 0.00 0.00 0.00 92 1025.8
20220124061504 39 250 1.7 7.0 0.00 0.00 0.00 93 1025.8
20220124060005 39 237 4.3 10.4 0.00 0.00 0.00 94 1025.8
20220124054503 38 250 1.7 7.0 0.00 0.00 0.00 93 1025.8
20220124053004 38 237 2.6 6.1 0.00 0.00 0.00 93 1026.1
20220124051503 38 238 3.5 7.0 0.00 0.00 0.00 94 1026.1
20220124044504 38 257 2.6 6.1 0.00 0.00 0.00 94 1026.2
20220124041504 38 239 2.6 7.8 0.00 0.00 0.00 94 1026.5
20220124040005 38 242 1.7 7.0 0.00 0.00 0.00 94 1026.6
20220124034504 38 240 2.6 6.1 0.00 0.00 0.00 94 1026.6
20220124031503 38 254 6.1 10.4 0.00 0.00 0.00 95 1026.6
20220124030003 38 226 3.5 6.1 0.00 0.00 0.00 95 1026.7
20220124024504 38 256 4.3 6.1 0.00 0.00 0.00 96 1026.7
20220124023004 37 212 2.6 5.2 0.00 0.00 0.00 95 1026.6
20220124021504 38 231 2.6 7.0 0.00 0.00 0.00 95 1026.7
20220124020004 38 267 5.2 10.4 0.00 0.00 0.00 96 1026.8
20220124013004 37 210 4.3 10.4 0.00 0.00 0.00 95 1026.8
20220124011503 37 205 2.6 8.7 0.00 0.00 0.00 95 1026.8
20220124010004 38 207 4.3 8.7 0.00 0.00 0.00 95 1026.8
20220124004504 38 206 4.3 10.4 0.00 0.00 0.00 95 1026.9
20220124003004 38 207 2.6 8.7 0.00 0.00 0.00 95 1027.0
20220124001504 39 217 4.3 8.7 0.00 0.00 0.00 95 1027.1
20220124000007 39 212 4.3 8.7 0.00 0.00 0.00 95 1027.4
20220123231502 39 198 4.3 7.8 0.00 0.00 0.00 96 1026.9
20220123230002 39 208 3.5 10.4 0.00 0.00 0.00 96 1026.9
20220123224502 38 195 4.3 8.7 0.00 0.00 0.00 96 1027.0
20220123223002 38 203 2.6 8.7 0.00 0.00 0.00 96 1027.0
20220123220002 38 210 4.3 10.4 0.00 0.00 0.00 96 1027.0
20220123214502 38 190 4.3 10.4 0.00 0.00 0.00 96 1027.2
20220123213002 36 194 3.5 7.8 0.00 0.00 0.00 96 1027.0
20220123211502 36 177 3.5 7.0 0.00 0.00 0.00 96 1027.0
20220123210002 35 185 2.6 5.2 0.00 0.00 0.00 95 1027.0
20220123203002 35 187 2.6 4.3 0.00 0.00 0.00 95 1027.0
20220123201502 35 196 2.6 5.2 0.00 0.00 0.00 95 1027.4
20220123200002 35 197 2.6 5.2 0.00 0.00 0.00 95 1027.4
20220123194502 35 189 1.7 5.2 0.00 0.00 0.00 95 1027.4
20220123193002 34 199 0.9 4.3 0.00 0.00 0.00 95 1027.4
20220123191503 34 192 1.7 4.3 0.00 0.00 0.00 95 1027.5
20220123190002 34 224 1.7 4.3 0.00 0.00 0.00 95 1027.7
20220123184502 34 230 2.6 4.3 0.00 0.00 0.00 95 1027.7
20220123183003 34 250 0.9 2.6 0.00 0.00 0.00 94 1027.7
20220123180003 34 282 1.7 4.3 0.00 0.00 0.00 94 1027.8
20220123174502 34 251 1.7 6.1 0.00 0.00 0.00 94 1027.8
20220123173002 33 252 0.9 6.1 0.00 0.00 0.00 93 1027.8
20220123171502 33 247 1.7 4.3 0.00 0.00 0.00 92 1027.8
20220123170002 34 223 1.7 6.1 0.00 0.00 0.00 92 1027.8
20220123164503 34 231 1.7 5.2 0.00 0.00 0.00 91 1027.5
20220123163003 35 211 2.6 6.1 0.00 0.00 0.00 91 1027.5
20220123161503 35 202 1.7 6.1 0.00 0.00 0.00 90 1027.5
20220123160003 36 213 2.6 6.1 0.00 0.00 0.00 90 1027.5
20220123154502 36 211 2.6 5.2 0.00 0.00 0.00 89 1027.5
20220123153003 36 204 2.6 6.1 0.00 0.00 0.00 89 1027.5
20220123151503 36 206 2.6 6.1 0.00 0.00 0.00 89 1027.2
20220123150002 36 201 2.6 7.0 0.00 0.00 0.00 90 1027.5
20220123144502 36 191 3.5 8.7 0.00 0.00 0.00 89 1027.5
20220123143003 37 212 4.3 7.8 0.00 0.00 0.00 88 1027.2
20220123141502 37 206 2.6 7.0 0.00 0.00 0.00 87 1027.2
20220123140003 37 204 1.7 4.3 0.00 0.00 0.00 88 1027.2
20220123134503 37 221 1.7 5.2 0.00 0.00 0.00 88 1027.0
20220123133003 37 173 1.7 5.2 0.00 0.00 0.00 89 1027.1
20220123131504 37 200 3.5 7.0 0.00 0.00 0.00 90 1027.1
20220123121502 34 202 4.3 7.0 0.00 0.00 0.00 93 1027.5
20220123120003 34 209 3.5 5.2 0.00 0.00 0.00 92 1027.4
20220123114503 34 210 3.5 10.4 0.00 0.00 0.00 92 1027.4
20220123111502 34 199 4.3 8.7 0.00 0.00 0.00 92 1027.5